KMIA METAR and TAF | Updated Today

KMIA METAR

Miami International Airport

Observation time: 35 min. ago

KMIA 301753Z 05003KT 10SM SCT048 24/14 A3011 RMK AO2 SLP196 T02440139 10256 20156 58018

Need help? Read our tutorial on how to read METARs or read the parsed version below.

Miami International Airport (KMIA) METAR

  • Weather conditions on Tue, 30 Nov 2021 17:53:00 +0000 (35 min. ago):
  • Present conditions: Dry
  • Clouds: Scattered at 1463 meters
  • Visibility: 16093 meters
  • Wind: 50 degrees at 3 knots
  • Temperature: 24 celsius
  • Dew point: 14 celsius
  • Pressure: 30.11 inHg
  • Remarks: AO2 SLP196 T02440139 10256 20156 58018


Useful to know...

KMIA TAF

Miami International Airport

KMIA 301720Z 3018/0124 04008KT P6SM FEW035 FM302300 VRB04KT P6SM SKC FM011500 10008KT P6SM FEW035
Observation time: 68 min. ago
Need help? Read our tutorial on how to read TAFs or read the parsed version below.

Parsed version of TAF for Miami International Airport (KMIA)

  • From 30 November at 18:00 UTC, to day 01 of the month at 24:00 UTC
  • Clouds: A few at 1067 meters
  • Wind: 40 degrees at 8
  • From day 30 of the month at 23:00 UTC
  • Clouds: No significant changes expected
  • Wind: Variable at 4
  • From day 1 of the month at 15:00 UTC
  • Clouds: A few at 1067 meters
  • Wind: 100 degrees at 8